createdAt,value
2022-08-07T00:02:36.883Z,0.30
2022-08-07T00:05:03.946Z,0.50
2022-08-07T00:07:40.266Z,0.40
2022-08-07T00:10:30.666Z,0.50
2022-08-07T00:13:09.872Z,0.30
2022-08-07T00:15:52.758Z,0.33
2022-08-07T00:18:26.056Z,0.33
2022-08-07T00:21:01.964Z,0.40
2022-08-07T00:23:34.026Z,0.40
2022-08-07T00:26:18.687Z,0.30
2022-08-07T00:28:57.005Z,0.30
2022-08-07T00:31:37.163Z,0.40
2022-08-07T00:34:09.537Z,0.47
2022-08-07T00:36:42.999Z,0.43
2022-08-07T00:39:16.497Z,0.30
2022-08-07T00:41:53.599Z,0.50
2022-08-07T00:44:31.556Z,0.40
2022-08-07T00:47:03.827Z,0.40
2022-08-07T00:50:20.696Z,0.40
2022-08-07T00:52:25.984Z,0.40
2022-08-07T00:54:55.706Z,0.47
2022-08-07T00:57:25.262Z,0.43
2022-08-07T00:59:56.176Z,0.40
2022-08-07T01:02:28.410Z,0.50
2022-08-07T01:04:58.732Z,0.43
2022-08-07T01:07:32.003Z,0.47
2022-08-07T01:10:06.279Z,0.50
2022-08-07T01:12:53.361Z,0.50
2022-08-07T01:16:00.646Z,0.40
2022-08-07T01:18:17.713Z,0.40
2022-08-07T01:20:57.498Z,0.50
2022-08-07T01:23:35.410Z,0.40
2022-08-07T01:26:13.488Z,0.47
2022-08-07T01:28:48.452Z,0.40
2022-08-07T01:31:18.293Z,0.40
2022-08-07T01:33:55.211Z,0.50
2022-08-07T01:36:33.347Z,0.50
2022-08-07T01:39:09.661Z,0.50
2022-08-07T01:42:01.563Z,0.50
2022-08-07T01:44:28.815Z,0.40
2022-08-07T01:48:16.985Z,0.50
2022-08-07T01:49:54.564Z,0.43
2022-08-07T01:52:27.397Z,0.60
2022-08-07T01:55:01.265Z,0.50
2022-08-07T01:58:06.157Z,0.50
2022-08-07T02:00:32.859Z,0.50
2022-08-07T02:03:18.553Z,0.50
2022-08-07T02:05:59.768Z,0.50
2022-08-07T02:08:30.633Z,0.50
2022-08-07T02:11:03.442Z,0.50
2022-08-07T02:13:57.177Z,0.70
2022-08-07T02:16:28.789Z,0.40
2022-08-07T02:19:05.477Z,0.60
2022-08-07T02:21:58.558Z,0.50
2022-08-07T02:24:30.346Z,0.60
2022-08-07T02:27:03.556Z,0.50
2022-08-07T02:29:36.882Z,0.70
2022-08-07T02:32:23.352Z,0.50
2022-08-07T02:34:57.677Z,0.50
2022-08-07T02:37:34.108Z,0.60
2022-08-07T02:40:29.949Z,0.50
2022-08-07T02:43:01.165Z,0.60
2022-08-07T02:45:58.981Z,0.70
2022-08-07T02:48:31.699Z,0.70
2022-08-07T02:51:06.359Z,0.60
2022-08-07T02:53:39.396Z,0.50
2022-08-07T02:56:21.174Z,0.40
2022-08-07T02:58:55.471Z,0.50
2022-08-07T03:01:36.485Z,0.60
2022-08-07T03:04:12.882Z,0.60
2022-08-07T03:06:44.780Z,0.80
2022-08-07T03:09:43.668Z,0.60
2022-08-07T03:12:08.137Z,0.60
2022-08-07T03:14:56.319Z,0.60
2022-08-07T03:17:26.874Z,0.50
2022-08-07T03:19:58.020Z,0.60
2022-08-07T03:22:29.688Z,0.70
2022-08-07T03:25:03.805Z,0.60
2022-08-07T03:27:59.075Z,0.60
2022-08-07T03:30:26.049Z,0.60
2022-08-07T03:32:58.872Z,0.70
2022-08-07T03:35:44.075Z,0.60
2022-08-07T03:38:21.491Z,0.60
2022-08-07T03:41:03.372Z,0.57
2022-08-07T03:43:32.251Z,0.60
2022-08-07T03:46:10.527Z,0.75
2022-08-07T03:49:02.484Z,1.20
2022-08-07T03:51:47.195Z,0.70
2022-08-07T03:54:36.279Z,0.90
2022-08-07T03:57:10.025Z,0.60
2022-08-07T04:00:01.829Z,0.77
2022-08-07T04:02:35.986Z,0.90
2022-08-07T04:05:09.802Z,0.70
2022-08-07T04:07:48.498Z,0.70
2022-08-07T04:10:19.042Z,0.77
2022-08-07T04:12:50.418Z,0.83
2022-08-07T04:15:19.401Z,0.87
2022-08-07T04:18:56.413Z,0.90
2022-08-07T04:20:54.674Z,0.97
2022-08-07T04:23:43.830Z,0.70
2022-08-07T04:26:16.894Z,0.80
2022-08-07T04:28:53.606Z,0.80
2022-08-07T04:31:38.953Z,1.00
2022-08-07T04:34:27.483Z,0.73
2022-08-07T04:37:01.978Z,1.10
2022-08-07T04:39:36.334Z,1.15
2022-08-07T04:42:05.628Z,1.20
2022-08-07T04:44:33.801Z,1.30
2022-08-07T04:47:11.141Z,1.17
2022-08-07T04:50:09.313Z,0.77
2022-08-07T04:58:15.883Z,0.95
2022-08-07T04:58:33.635Z,0.97
2022-08-07T05:01:18.472Z,0.90
2022-08-07T12:59:20.459Z,0.95
2022-08-07T13:01:59.697Z,1.00
2022-08-07T13:04:48.955Z,1.00
2022-08-07T13:08:13.798Z,1.10
2022-08-07T13:11:02.718Z,1.02
2022-08-07T13:13:48.734Z,1.00
2022-08-07T13:16:30.482Z,1.00
2022-08-07T13:19:11.543Z,0.80
2022-08-07T13:21:59.033Z,0.70
2022-08-07T13:24:43.991Z,0.70
2022-08-07T13:28:05.606Z,0.90
2022-08-07T13:30:18.886Z,1.10
2022-08-07T13:33:16.442Z,0.80
2022-08-07T13:36:17.495Z,0.90
2022-08-07T13:38:54.402Z,0.90
2022-08-07T13:41:33.238Z,0.73
2022-08-07T13:44:10.266Z,0.90
2022-08-07T13:46:49.233Z,0.93
2022-08-07T13:50:34.377Z,1.10
2022-08-07T13:52:31.801Z,1.02
2022-08-07T13:55:11.007Z,0.90
2022-08-07T13:57:59.066Z,0.95
2022-08-07T14:00:50.652Z,1.20
2022-08-07T14:04:01.602Z,1.00
2022-08-07T14:06:16.789Z,0.80
2022-08-07T14:08:48.791Z,0.90
2022-08-07T14:11:53.650Z,0.90
2022-08-07T14:14:18.777Z,0.90
2022-08-07T14:16:56.829Z,0.90
2022-08-07T14:20:40.549Z,1.00
2022-08-07T14:22:34.471Z,0.90
2022-08-07T14:25:14.478Z,0.90
2022-08-07T14:28:12.281Z,1.00
2022-08-07T14:30:40.635Z,1.10
2022-08-07T14:33:11.973Z,1.00
2022-08-07T14:35:47.611Z,1.05
2022-08-07T14:38:30.624Z,1.00
2022-08-07T14:41:04.122Z,0.82
2022-08-07T14:43:56.943Z,1.02
2022-08-07T14:46:31.393Z,0.90
2022-08-07T14:49:55.854Z,0.90
2022-08-07T14:52:03.661Z,0.82
2022-08-07T14:54:41.989Z,0.90
2022-08-07T14:57:14.953Z,1.00
2022-08-07T15:00:05.751Z,0.80
2022-08-07T15:02:37.320Z,0.70
2022-08-07T15:05:20.464Z,0.90
2022-08-07T15:10:58.761Z,0.77
2022-08-07T15:13:37.009Z,0.70
2022-08-07T15:16:19.781Z,0.80
2022-08-07T15:19:04.013Z,0.80
2022-08-07T15:25:16.169Z,0.70
2022-08-07T15:27:32.743Z,0.70
2022-08-07T15:30:16.196Z,0.93
2022-08-07T15:33:03.908Z,0.80
2022-08-07T16:30:09.271Z,0.90
2022-08-07T16:31:57.048Z,0.90
2022-08-07T16:34:40.746Z,0.90
2022-08-07T16:38:05.230Z,0.80
2022-08-07T16:40:57.549Z,0.90
2022-08-07T16:44:04.102Z,0.87
2022-08-07T16:47:45.464Z,0.85
2022-08-07T16:50:35.187Z,0.80
2022-08-07T16:54:02.072Z,0.80
2022-08-07T16:56:21.106Z,0.90
2022-08-07T16:59:10.737Z,1.10
2022-08-07T17:01:52.513Z,1.00
2022-08-07T17:04:35.409Z,0.90
2022-08-07T17:07:13.500Z,1.10
2022-08-07T17:10:05.981Z,1.00
2022-08-07T17:12:45.418Z,0.80
2022-08-07T17:36:49.047Z,1.08
2022-08-07T18:14:57.861Z,1.20
2022-08-07T18:18:44.805Z,1.13
2022-08-07T18:29:04.313Z,1.10
2022-08-07T18:31:50.294Z,1.20
2022-08-07T19:13:32.182Z,1.38
2022-08-07T19:16:43.558Z,1.33
2022-08-07T19:19:01.669Z,1.40
2022-08-07T19:21:45.146Z,1.65
2022-08-07T19:24:30.915Z,1.38
2022-08-07T19:28:57.948Z,1.73
2022-08-07T19:31:05.605Z,1.52
2022-08-07T19:32:59.742Z,1.80
2022-08-07T19:35:33.354Z,1.70
2022-08-07T19:38:16.044Z,2.00
2022-08-07T19:40:51.702Z,1.73
2022-08-07T19:43:49.561Z,2.38
2022-08-07T19:46:29.706Z,1.90
2022-08-07T19:49:10.063Z,1.80
2022-08-07T19:51:51.873Z,1.85
2022-08-07T19:54:44.352Z,2.10
2022-08-07T19:58:03.553Z,2.00
2022-08-07T20:00:28.527Z,2.03
2022-08-07T20:03:04.057Z,1.65
2022-08-07T20:06:00.365Z,1.63
2022-08-07T20:08:32.188Z,2.05
2022-08-07T20:11:10.628Z,1.80
2022-08-07T20:13:47.742Z,1.85
2022-08-07T20:16:35.547Z,1.93
2022-08-07T20:19:09.965Z,2.00
2022-08-07T20:21:47.495Z,2.07
2022-08-07T20:24:21.448Z,2.22
2022-08-07T20:26:54.892Z,1.67
2022-08-07T20:29:47.133Z,2.00
2022-08-07T20:32:39.727Z,2.30
2022-08-07T20:35:15.962Z,2.17
2022-08-07T20:37:59.246Z,2.20
2022-08-07T20:40:34.524Z,2.03
2022-08-07T20:43:14.489Z,2.63
2022-08-07T20:46:28.443Z,2.17
2022-08-07T20:49:00.742Z,2.40
2022-08-07T20:51:51.198Z,2.40
2022-08-07T20:54:29.912Z,2.40
2022-08-07T20:57:10.516Z,2.30
2022-08-07T21:00:08.448Z,2.50
2022-08-07T21:03:10.491Z,2.53
2022-08-07T21:05:55.848Z,2.30
2022-08-07T21:08:37.626Z,2.43
2022-08-07T21:11:17.331Z,2.40
2022-08-07T21:14:29.295Z,2.10
2022-08-07T21:17:06.845Z,2.73
2022-08-07T21:19:51.085Z,2.77
2022-08-07T21:22:30.718Z,2.45
2022-08-07T21:25:15.954Z,2.70
2022-08-07T21:28:13.515Z,2.50
2022-08-07T21:30:58.727Z,2.78
2022-08-07T21:33:44.844Z,2.70
2022-08-07T21:36:32.170Z,2.43
2022-08-07T21:39:46.104Z,2.27
2022-08-07T21:46:10.384Z,2.70
2022-08-07T21:48:34.328Z,2.80
2022-08-07T21:51:25.139Z,2.80
2022-08-07T21:54:13.351Z,2.40
2022-08-07T21:57:01.882Z,2.47
2022-08-07T22:00:04.872Z,2.60
2022-08-07T22:02:53.529Z,2.63
2022-08-07T22:05:45.914Z,2.83
2022-08-07T22:08:27.446Z,2.87
2022-08-07T22:11:10.011Z,2.83
2022-08-07T22:13:53.011Z,3.13
2022-08-07T22:16:42.550Z,2.70
2022-08-07T22:22:20.775Z,2.90
2022-08-07T22:25:08.419Z,2.77
2022-08-07T22:28:07.909Z,2.90
2022-08-07T22:30:52.021Z,3.40
2022-08-07T22:33:53.117Z,2.90
2022-08-07T22:36:41.542Z,3.30
2022-08-07T22:39:28.312Z,3.00
2022-08-07T22:42:19.679Z,3.30
2022-08-07T22:45:02.380Z,3.37
2022-08-07T22:48:54.747Z,3.10
2022-08-07T22:51:51.848Z,3.80
2022-08-07T23:00:03.901Z,3.50
2022-08-07T23:02:52.875Z,3.33
2022-08-07T23:06:09.689Z,4.00
2022-08-07T23:10:01.137Z,3.70
2022-08-07T23:12:04.116Z,3.60
2022-08-07T23:14:51.051Z,3.47
2022-08-07T23:17:45.115Z,4.10
2022-08-07T23:20:53.051Z,4.30
2022-08-07T23:24:04.350Z,4.13
2022-08-07T23:26:55.087Z,3.90
2022-08-07T23:30:37.670Z,4.13
2022-08-07T23:34:22.468Z,4.10
2022-08-07T23:36:29.936Z,4.17
2022-08-07T23:39:13.002Z,4.20
2022-08-07T23:42:15.618Z,4.40
2022-08-07T23:46:01.493Z,4.80
2022-08-07T23:48:34.880Z,4.90
2022-08-07T23:52:58.277Z,4.73
2022-08-07T23:54:44.389Z,4.93
2022-08-07T23:57:22.254Z,5.10
